Siriri, Brazil
Current Conditions -  °F | °C
As of 11:00 PM on Saturday 20 Dec 2014 (Local Time) from SBAR Reporting Station
Few Clouds Few Clouds  
Wind Chill: 77°   Ceiling: Unl
Heat Index: 78°   Visibility: 6mi
Dew Point: 73°   Wind: 9mph
Humidity: 89%   Direction: 100°E
Pressure: 29.97"   Gusts: NA
Location:  10.6°S, 37.13°W
Report Text: SBAR 210200Z 10008KT 9999 FEW017 25/23 Q1015
Loading
Personal Weather Stations






























Interactive Weather Map New forecast layout! Learn more

10-Day Weather Forecast

Advertisements
Track Severe Weather on mobile